Amuesa — CQOC — position and weather

sailwx.info

Track history (hours):
 
Tides and Currents Weather Stations Pressure Air Temp Water Temp Dewpoint Dewpoint Depression Visibility Wind Speed Wind Dir Waves Ship Positions

Amuesa

Last reported at 2017-Dec-10 00:07 UTC. Time now 2017-Dec-12 12:34 UTC.
Position N 37°14' W 000°56'.

Length 90 m; draft 4.2 m.

Type: Cargo ship. MMSI: 255802640.

Date/timePositionNaut miles runAvg speedWind from/ knotsBaromVisibWave heightAir tempDewpointWater temp
2017-Dec-10 00:07N 37°14' W 000°56'1 4.6
2017-Dec-10 00:00N 37°14' W 000°56'3 5.8
2017-Dec-09 23:30N 37°14' W 000°52'3 6.2
2017-Dec-09 23:00N 37°14' W 000°48'2 3.8
2017-Dec-09 22:30N 37°14' W 000°46'3 3.3
2017-Dec-09 21:35N 37°15' W 000°42'0 3.2
2017-Dec-09 21:29N 37°15' W 000°42'17 4.4
2017-Dec-09 17:35N 37°16' W 000°20'1 5.3
2017-Dec-09 17:26N 37°16' W 000°19'  
Track history (hours):
 
Tides and Currents Weather Stations Pressure Air Temp Water Temp Dewpoint Dewpoint Depression Visibility Wind Speed Wind Dir Waves Ship Positions

Amuesa

Last reported at 2017-Dec-10 00:07 UTC. Time now 2017-Dec-12 12:34 UTC.
Position N 37°14' W 000°56'.

Length 90 m; draft 4.2 m.

Type: Cargo ship. MMSI: 255802640.

Date/timePositionNaut miles runAvg speedWind from/ knotsBaromVisibWave heightAir tempDewpointWater temp
2017-Dec-10 00:07N 37°14' W 000°56'1 4.6
2017-Dec-10 00:00N 37°14' W 000°56'3 5.8
2017-Dec-09 23:30N 37°14' W 000°52'3 6.2
2017-Dec-09 23:00N 37°14' W 000°48'2 3.8
2017-Dec-09 22:30N 37°14' W 000°46'3 3.3
2017-Dec-09 21:35N 37°15' W 000°42'0 3.2
2017-Dec-09 21:29N 37°15' W 000°42'17 4.4
2017-Dec-09 17:35N 37°16' W 000°20'1 5.3
2017-Dec-09 17:26N 37°16' W 000°19'  

Dump ship's entire track history